Thamesville, Canada
Current Conditions -  °F | °C
As of 7:00 PM on Wednesday 26 Nov 2014 (Local Time) from CYCK Reporting Station
Overcast Overcast  
Wind Chill: 23°   Ceiling: 4200
Heat Index: 32°   Visibility: 9mi
Dew Point: 28°   Wind: 12mph
Humidity: 87%   Direction: 20°NNE
Pressure: 30.06"   Gusts: NA
Location:  42.55°N, 81.97°W
Report Text: CYCK 270000Z AUTO 02010KT 9SM OVC042 00/M02 A3006 RMK SLP188
Loading
Personal Weather Stations






























Interactive Weather Map New forecast layout! Learn more

10-Day Weather Forecast

Advertisements
Track Severe Weather on mobile